sensor_id;sensor_type;location;lat;lon;timestamp;temperature;humidity
23869;DHT22;12115;47.128;15.422;2022-11-18T00:01:19;4.50;99.90
23869;DHT22;12115;47.128;15.422;2022-11-18T00:03:47;4.40;99.90
23869;DHT22;12115;47.128;15.422;2022-11-18T00:06:16;4.40;99.90
23869;DHT22;12115;47.128;15.422;2022-11-18T00:08:44;4.40;99.90
23869;DHT22;12115;47.128;15.422;2022-11-18T00:11:13;4.40;99.90
23869;DHT22;12115;47.128;15.422;2022-11-18T00:14:04;4.40;99.90
23869;DHT22;12115;47.128;15.422;2022-11-18T00:17:02;4.20;99.90
23869;DHT22;12115;47.128;15.422;2022-11-18T00:19:33;4.20;99.90
23869;DHT22;12115;47.128;15.422;2022-11-18T00:22:00;4.20;99.90
23869;DHT22;12115;47.128;15.422;2022-11-18T00:24:27;4.10;99.90
23869;DHT22;12115;47.128;15.422;2022-11-18T00:26:56;4.20;99.90
23869;DHT22;12115;47.128;15.422;2022-11-18T00:29:23;4.20;99.90
23869;DHT22;12115;47.128;15.422;2022-11-18T00:31:54;4.20;99.90
23869;DHT22;12115;47.128;15.422;2022-11-18T00:34:22;4.20;99.90
23869;DHT22;12115;47.128;15.422;2022-11-18T00:36:49;4.30;99.90
23869;DHT22;12115;47.128;15.422;2022-11-18T00:39:17;4.30;99.90
23869;DHT22;12115;47.128;15.422;2022-11-18T00:41:46;4.40;99.90
23869;DHT22;12115;47.128;15.422;2022-11-18T00:44:31;4.40;99.90
23869;DHT22;12115;47.128;15.422;2022-11-18T00:46:58;4.50;99.90
23869;DHT22;12115;47.128;15.422;2022-11-18T00:49:25;4.50;99.90
23869;DHT22;12115;47.128;15.422;2022-11-18T00:51:52;4.50;99.90
23869;DHT22;12115;47.128;15.422;2022-11-18T00:54:20;4.50;99.90
23869;DHT22;12115;47.128;15.422;2022-11-18T00:56:47;4.60;99.90
23869;DHT22;12115;47.128;15.422;2022-11-18T00:59:14;4.60;99.90
23869;DHT22;12115;47.128;15.422;2022-11-18T01:01:42;4.60;99.90
23869;DHT22;12115;47.128;15.422;2022-11-18T01:04:09;4.70;99.90
23869;DHT22;12115;47.128;15.422;2022-11-18T01:06:36;4.70;99.90
23869;DHT22;12115;47.128;15.422;2022-11-18T01:09:03;4.70;99.90
23869;DHT22;12115;47.128;15.422;2022-11-18T01:11:30;4.70;99.90
23869;DHT22;12115;47.128;15.422;2022-11-18T01:14:16;4.70;99.90
23869;DHT22;12115;47.128;15.422;2022-11-18T01:16:43;4.70;99.90
23869;DHT22;12115;47.128;15.422;2022-11-18T01:19:10;4.70;99.90
23869;DHT22;12115;47.128;15.422;2022-11-18T01:21:37;4.80;99.90
23869;DHT22;12115;47.128;15.422;2022-11-18T01:24:04;4.80;99.90
23869;DHT22;12115;47.128;15.422;2022-11-18T01:26:31;4.80;99.90
23869;DHT22;12115;47.128;15.422;2022-11-18T01:28:58;4.90;99.90
23869;DHT22;12115;47.128;15.422;2022-11-18T01:31:25;4.90;99.90
23869;DHT22;12115;47.128;15.422;2022-11-18T01:33:52;4.90;99.90
23869;DHT22;12115;47.128;15.422;2022-11-18T01:38:48;4.90;99.90
23869;DHT22;12115;47.128;15.422;2022-11-18T01:41:17;5.00;99.90
23869;DHT22;12115;47.128;15.422;2022-11-18T01:43:55;5.00;99.90
23869;DHT22;12115;47.128;15.422;2022-11-18T01:46:24;5.00;99.90
23869;DHT22;12115;47.128;15.422;2022-11-18T01:49:04;5.00;99.90
23869;DHT22;12115;47.128;15.422;2022-11-18T01:51:35;5.10;99.90
23869;DHT22;12115;47.128;15.422;2022-11-18T01:54:08;5.10;99.90
23869;DHT22;12115;47.128;15.422;2022-11-18T01:56:43;5.10;99.90
23869;DHT22;12115;47.128;15.422;2022-11-18T01:59:14;5.10;99.90
23869;DHT22;12115;47.128;15.422;2022-11-18T02:01:43;5.20;99.90
23869;DHT22;12115;47.128;15.422;2022-11-18T02:04:11;5.20;99.90
23869;DHT22;12115;47.128;15.422;2022-11-18T02:06:43;5.20;99.90
23869;DHT22;12115;47.128;15.422;2022-11-18T02:09:14;5.30;99.90
23869;DHT22;12115;47.128;15.422;2022-11-18T02:11:42;5.30;99.90
23869;DHT22;12115;47.128;15.422;2022-11-18T02:14:23;5.30;99.90
23869;DHT22;12115;47.128;15.422;2022-11-18T02:17:12;5.30;99.90
23869;DHT22;12115;47.128;15.422;2022-11-18T02:22:31;5.40;99.90
23869;DHT22;12115;47.128;15.422;2022-11-18T02:30:06;5.40;99.90
23869;DHT22;12115;47.128;15.422;2022-11-18T02:37:57;5.50;99.90
23869;DHT22;12115;47.128;15.422;2022-11-18T02:40:29;5.50;99.90
23869;DHT22;12115;47.128;15.422;2022-11-18T02:43:08;5.50;99.90
23869;DHT22;12115;47.128;15.422;2022-11-18T02:45:38;5.60;99.90
23869;DHT22;12115;47.128;15.422;2022-11-18T02:48:09;5.60;99.90
23869;DHT22;12115;47.128;15.422;2022-11-18T02:50:37;5.60;99.90
23869;DHT22;12115;47.128;15.422;2022-11-18T02:53:07;5.60;99.90
23869;DHT22;12115;47.128;15.422;2022-11-18T02:55:37;5.60;99.90
23869;DHT22;12115;47.128;15.422;2022-11-18T02:58:05;5.60;99.90
23869;DHT22;12115;47.128;15.422;2022-11-18T03:00:33;5.70;99.90
23869;DHT22;12115;47.128;15.422;2022-11-18T03:03:31;5.70;99.90
23869;DHT22;12115;47.128;15.422;2022-11-18T03:06:06;5.70;99.90
23869;DHT22;12115;47.128;15.422;2022-11-18T03:08:48;5.70;99.90
23869;DHT22;12115;47.128;15.422;2022-11-18T03:11:21;5.70;99.90
23869;DHT22;12115;47.128;15.422;2022-11-18T03:14:15;5.70;99.90
23869;DHT22;12115;47.128;15.422;2022-11-18T03:16:58;5.70;99.90
23869;DHT22;12115;47.128;15.422;2022-11-18T03:22:16;5.70;99.90
23869;DHT22;12115;47.128;15.422;2022-11-18T03:24:53;5.70;99.90
23869;DHT22;12115;47.128;15.422;2022-11-18T03:27:35;5.70;99.90
23869;DHT22;12115;47.128;15.422;2022-11-18T03:30:08;5.80;99.90
23869;DHT22;12115;47.128;15.422;2022-11-18T03:32:41;5.70;99.90
23869;DHT22;12115;47.128;15.422;2022-11-18T03:35:13;5.80;99.90
23869;DHT22;12115;47.128;15.422;2022-11-18T03:37:43;5.80;99.90
23869;DHT22;12115;47.128;15.422;2022-11-18T03:40:18;5.80;99.90
23869;DHT22;12115;47.128;15.422;2022-11-18T03:42:49;5.80;99.90
23869;DHT22;12115;47.128;15.422;2022-11-18T03:45:36;5.80;99.90
23869;DHT22;12115;47.128;15.422;2022-11-18T03:48:17;5.80;99.90
23869;DHT22;12115;47.128;15.422;2022-11-18T03:51:10;5.80;99.90
23869;DHT22;12115;47.128;15.422;2022-11-18T03:53:51;5.80;99.90
23869;DHT22;12115;47.128;15.422;2022-11-18T03:56:25;5.80;99.90
23869;DHT22;12115;47.128;15.422;2022-11-18T04:01:44;5.80;99.90
23869;DHT22;12115;47.128;15.422;2022-11-18T04:04:13;5.80;99.90
23869;DHT22;12115;47.128;15.422;2022-11-18T04:09:27;5.80;99.90
23869;DHT22;12115;47.128;15.422;2022-11-18T04:12:01;5.80;99.90
23869;DHT22;12115;47.128;15.422;2022-11-18T04:14:36;5.80;99.90
23869;DHT22;12115;47.128;15.422;2022-11-18T04:17:26;5.80;99.90
23869;DHT22;12115;47.128;15.422;2022-11-18T04:19:53;5.80;99.90
23869;DHT22;12115;47.128;15.422;2022-11-18T04:22:20;5.90;99.90
23869;DHT22;12115;47.128;15.422;2022-11-18T04:24:47;5.90;99.90
23869;DHT22;12115;47.128;15.422;2022-11-18T04:27:14;5.90;99.90
23869;DHT22;12115;47.128;15.422;2022-11-18T04:29:41;5.80;99.90
23869;DHT22;12115;47.128;15.422;2022-11-18T04:32:09;5.80;99.90
23869;DHT22;12115;47.128;15.422;2022-11-18T04:34:36;5.80;99.90
23869;DHT22;12115;47.128;15.422;2022-11-18T04:37:03;5.80;99.90
23869;DHT22;12115;47.128;15.422;2022-11-18T04:39:30;5.80;99.90
23869;DHT22;12115;47.128;15.422;2022-11-18T04:41:58;5.80;99.90
23869;DHT22;12115;47.128;15.422;2022-11-18T04:44:30;5.70;99.90
23869;DHT22;12115;47.128;15.422;2022-11-18T04:47:00;5.70;99.90
23869;DHT22;12115;47.128;15.422;2022-11-18T04:49:29;5.70;99.90
23869;DHT22;12115;47.128;15.422;2022-11-18T04:51:56;5.70;99.90
23869;DHT22;12115;47.128;15.422;2022-11-18T04:54:25;5.70;99.90
23869;DHT22;12115;47.128;15.422;2022-11-18T04:56:52;5.70;99.90
23869;DHT22;12115;47.128;15.422;2022-11-18T04:59:25;5.70;99.90
23869;DHT22;12115;47.128;15.422;2022-11-18T05:01:53;5.80;99.90
23869;DHT22;12115;47.128;15.422;2022-11-18T05:04:23;5.70;99.90
23869;DHT22;12115;47.128;15.422;2022-11-18T05:06:50;5.70;99.90
23869;DHT22;12115;47.128;15.422;2022-11-18T05:09:19;5.80;99.90
23869;DHT22;12115;47.128;15.422;2022-11-18T05:11:47;5.70;99.90
23869;DHT22;12115;47.128;15.422;2022-11-18T05:14:32;5.70;99.90
23869;DHT22;12115;47.128;15.422;2022-11-18T05:17:01;5.70;99.90
23869;DHT22;12115;47.128;15.422;2022-11-18T05:19:28;5.70;99.90
23869;DHT22;12115;47.128;15.422;2022-11-18T05:21:56;5.70;99.90
23869;DHT22;12115;47.128;15.422;2022-11-18T05:24:23;5.70;99.90
23869;DHT22;12115;47.128;15.422;2022-11-18T05:26:51;5.70;99.90
23869;DHT22;12115;47.128;15.422;2022-11-18T05:29:19;5.70;99.90
23869;DHT22;12115;47.128;15.422;2022-11-18T05:31:47;5.60;99.90
23869;DHT22;12115;47.128;15.422;2022-11-18T05:34:15;5.60;99.90
23869;DHT22;12115;47.128;15.422;2022-11-18T05:36:42;5.60;99.90
23869;DHT22;12115;47.128;15.422;2022-11-18T05:39:09;5.60;99.90
23869;DHT22;12115;47.128;15.422;2022-11-18T05:41:36;5.60;99.90
23869;DHT22;12115;47.128;15.422;2022-11-18T05:44:21;5.60;99.90
23869;DHT22;12115;47.128;15.422;2022-11-18T05:46:48;5.60;99.90
23869;DHT22;12115;47.128;15.422;2022-11-18T05:49:15;5.60;99.90
23869;DHT22;12115;47.128;15.422;2022-11-18T05:51:43;5.70;99.90
23869;DHT22;12115;47.128;15.422;2022-11-18T05:54:11;5.70;99.90
23869;DHT22;12115;47.128;15.422;2022-11-18T05:56:44;5.70;99.90
23869;DHT22;12115;47.128;15.422;2022-11-18T05:59:11;5.70;99.90
23869;DHT22;12115;47.128;15.422;2022-11-18T06:07:08;5.80;99.90
23869;DHT22;12115;47.128;15.422;2022-11-18T06:09:39;5.80;99.90
23869;DHT22;12115;47.128;15.422;2022-11-18T06:12:07;5.80;99.90
23869;DHT22;12115;47.128;15.422;2022-11-18T06:14:39;5.70;99.90
23869;DHT22;12115;47.128;15.422;2022-11-18T06:17:13;5.70;99.90
23869;DHT22;12115;47.128;15.422;2022-11-18T06:19:42;5.80;99.90
23869;DHT22;12115;47.128;15.422;2022-11-18T06:22:09;5.80;99.90
23869;DHT22;12115;47.128;15.422;2022-11-18T06:24:37;5.70;99.90
23869;DHT22;12115;47.128;15.422;2022-11-18T06:27:04;5.60;99.90
23869;DHT22;12115;47.128;15.422;2022-11-18T06:29:31;5.70;99.90
23869;DHT22;12115;47.128;15.422;2022-11-18T06:31:58;5.70;99.90
23869;DHT22;12115;47.128;15.422;2022-11-18T06:34:25;5.70;99.90
23869;DHT22;12115;47.128;15.422;2022-11-18T06:37:15;5.70;99.90
23869;DHT22;12115;47.128;15.422;2022-11-18T06:39:42;5.70;99.90
23869;DHT22;12115;47.128;15.422;2022-11-18T06:42:09;5.80;99.90
23869;DHT22;12115;47.128;15.422;2022-11-18T06:44:36;5.80;99.90
23869;DHT22;12115;47.128;15.422;2022-11-18T06:47:03;5.80;99.90
23869;DHT22;12115;47.128;15.422;2022-11-18T06:49:31;5.80;99.90
23869;DHT22;12115;47.128;15.422;2022-11-18T06:51:58;5.80;99.90
23869;DHT22;12115;47.128;15.422;2022-11-18T06:54:25;5.90;99.90
23869;DHT22;12115;47.128;15.422;2022-11-18T06:56:52;5.90;99.90
23869;DHT22;12115;47.128;15.422;2022-11-18T06:59:19;5.90;99.90
23869;DHT22;12115;47.128;15.422;2022-11-18T07:01:47;5.90;99.90
23869;DHT22;12115;47.128;15.422;2022-11-18T07:04:14;5.80;99.90
23869;DHT22;12115;47.128;15.422;2022-11-18T07:06:41;5.80;99.90
23869;DHT22;12115;47.128;15.422;2022-11-18T07:09:09;5.80;99.90
23869;DHT22;12115;47.128;15.422;2022-11-18T07:11:35;5.80;99.90
23869;DHT22;12115;47.128;15.422;2022-11-18T07:14:04;5.90;99.90
23869;DHT22;12115;47.128;15.422;2022-11-18T07:16:33;5.80;99.90
23869;DHT22;12115;47.128;15.422;2022-11-18T07:19:00;5.80;99.90
23869;DHT22;12115;47.128;15.422;2022-11-18T07:21:28;5.80;99.90
23869;DHT22;12115;47.128;15.422;2022-11-18T07:23:56;5.90;99.90
23869;DHT22;12115;47.128;15.422;2022-11-18T07:26:23;5.90;99.90
23869;DHT22;12115;47.128;15.422;2022-11-18T07:28:50;5.90;99.90
23869;DHT22;12115;47.128;15.422;2022-11-18T07:31:19;5.90;99.90
23869;DHT22;12115;47.128;15.422;2022-11-18T07:33:47;5.90;99.90
23869;DHT22;12115;47.128;15.422;2022-11-18T07:36:17;6.00;99.90
23869;DHT22;12115;47.128;15.422;2022-11-18T07:38:45;6.00;99.90
23869;DHT22;12115;47.128;15.422;2022-11-18T07:41:15;6.00;99.90
23869;DHT22;12115;47.128;15.422;2022-11-18T07:43:43;6.10;99.90
23869;DHT22;12115;47.128;15.422;2022-11-18T07:46:14;6.10;99.90
23869;DHT22;12115;47.128;15.422;2022-11-18T07:48:43;6.20;99.90
23869;DHT22;12115;47.128;15.422;2022-11-18T07:51:11;6.20;99.90
23869;DHT22;12115;47.128;15.422;2022-11-18T07:53:38;6.20;99.90
23869;DHT22;12115;47.128;15.422;2022-11-18T07:56:06;6.20;99.90
23869;DHT22;12115;47.128;15.422;2022-11-18T07:58:33;6.30;99.90
23869;DHT22;12115;47.128;15.422;2022-11-18T08:03:38;6.30;99.90
23869;DHT22;12115;47.128;15.422;2022-11-18T08:06:07;6.30;99.90
23869;DHT22;12115;47.128;15.422;2022-11-18T08:08:35;6.30;99.90
23869;DHT22;12115;47.128;15.422;2022-11-18T08:11:04;6.40;99.90
23869;DHT22;12115;47.128;15.422;2022-11-18T08:13:32;6.40;99.90
23869;DHT22;12115;47.128;15.422;2022-11-18T08:16:00;6.40;99.90
23869;DHT22;12115;47.128;15.422;2022-11-18T08:18:28;6.40;99.90
23869;DHT22;12115;47.128;15.422;2022-11-18T08:20:55;6.40;99.90
23869;DHT22;12115;47.128;15.422;2022-11-18T08:23:26;6.40;99.90
23869;DHT22;12115;47.128;15.422;2022-11-18T08:26:05;6.40;99.90
23869;DHT22;12115;47.128;15.422;2022-11-18T08:28:33;6.50;99.90
23869;DHT22;12115;47.128;15.422;2022-11-18T08:31:15;6.50;99.90
23869;DHT22;12115;47.128;15.422;2022-11-18T08:33:43;6.50;99.90
23869;DHT22;12115;47.128;15.422;2022-11-18T08:36:14;6.50;99.90
23869;DHT22;12115;47.128;15.422;2022-11-18T08:38:41;6.50;99.90
23869;DHT22;12115;47.128;15.422;2022-11-18T08:41:14;6.50;99.90
23869;DHT22;12115;47.128;15.422;2022-11-18T08:43:42;6.50;99.90
23869;DHT22;12115;47.128;15.422;2022-11-18T08:46:09;6.50;99.90
23869;DHT22;12115;47.128;15.422;2022-11-18T08:48:36;6.50;99.90
23869;DHT22;12115;47.128;15.422;2022-11-18T08:51:03;6.60;99.90
23869;DHT22;12115;47.128;15.422;2022-11-18T08:53:30;6.60;99.90
23869;DHT22;12115;47.128;15.422;2022-11-18T08:55:59;6.50;99.90
23869;DHT22;12115;47.128;15.422;2022-11-18T08:58:26;6.50;99.90
23869;DHT22;12115;47.128;15.422;2022-11-18T09:00:54;6.50;99.90
23869;DHT22;12115;47.128;15.422;2022-11-18T09:03:21;6.50;99.90
23869;DHT22;12115;47.128;15.422;2022-11-18T09:05:49;6.50;99.90
23869;DHT22;12115;47.128;15.422;2022-11-18T09:08:16;6.50;99.90
23869;DHT22;12115;47.128;15.422;2022-11-18T09:10:43;6.50;99.90
23869;DHT22;12115;47.128;15.422;2022-11-18T09:13:10;6.60;99.90
23869;DHT22;12115;47.128;15.422;2022-11-18T09:15:58;6.60;99.90
23869;DHT22;12115;47.128;15.422;2022-11-18T09:18:25;6.60;99.90
23869;DHT22;12115;47.128;15.422;2022-11-18T09:20:58;6.60;99.90
23869;DHT22;12115;47.128;15.422;2022-11-18T09:23:26;6.60;99.90
23869;DHT22;12115;47.128;15.422;2022-11-18T09:26:04;6.70;99.90
23869;DHT22;12115;47.128;15.422;2022-11-18T09:28:31;6.70;99.90
23869;DHT22;12115;47.128;15.422;2022-11-18T09:31:02;6.70;99.90
23869;DHT22;12115;47.128;15.422;2022-11-18T09:33:29;6.70;99.90
23869;DHT22;12115;47.128;15.422;2022-11-18T09:35:56;6.70;99.90
23869;DHT22;12115;47.128;15.422;2022-11-18T09:38:23;6.70;99.90
23869;DHT22;12115;47.128;15.422;2022-11-18T09:48:59;6.70;99.90
23869;DHT22;12115;47.128;15.422;2022-11-18T09:51:48;6.70;99.90
23869;DHT22;12115;47.128;15.422;2022-11-18T09:54:29;6.70;99.90
23869;DHT22;12115;47.128;15.422;2022-11-18T09:56:57;6.80;99.90
23869;DHT22;12115;47.128;15.422;2022-11-18T09:59:27;6.80;99.90
23869;DHT22;12115;47.128;15.422;2022-11-18T10:02:00;6.80;99.90
23869;DHT22;12115;47.128;15.422;2022-11-18T10:04:28;6.80;99.90
23869;DHT22;12115;47.128;15.422;2022-11-18T10:07:00;6.90;99.90
23869;DHT22;12115;47.128;15.422;2022-11-18T10:09:38;6.90;99.90
23869;DHT22;12115;47.128;15.422;2022-11-18T10:23:14;7.00;99.90
23869;DHT22;12115;47.128;15.422;2022-11-18T10:25:48;7.00;99.90
23869;DHT22;12115;47.128;15.422;2022-11-18T10:28:27;7.00;99.90
23869;DHT22;12115;47.128;15.422;2022-11-18T10:31:05;7.00;99.90
23869;DHT22;12115;47.128;15.422;2022-11-18T10:33:33;7.00;99.90
23869;DHT22;12115;47.128;15.422;2022-11-18T10:38:43;7.00;99.90
23869;DHT22;12115;47.128;15.422;2022-11-18T10:41:17;7.00;99.90
23869;DHT22;12115;47.128;15.422;2022-11-18T10:43:55;7.10;99.90
23869;DHT22;12115;47.128;15.422;2022-11-18T10:51:36;7.30;99.90
23869;DHT22;12115;47.128;15.422;2022-11-18T10:59:50;7.30;99.90
23869;DHT22;12115;47.128;15.422;2022-11-18T11:02:30;7.40;99.90
23869;DHT22;12115;47.128;15.422;2022-11-18T11:05:02;7.40;99.90
23869;DHT22;12115;47.128;15.422;2022-11-18T11:07:34;7.40;99.90
23869;DHT22;12115;47.128;15.422;2022-11-18T11:12:34;7.50;99.90
23869;DHT22;12115;47.128;15.422;2022-11-18T11:15:09;7.50;99.90
23869;DHT22;12115;47.128;15.422;2022-11-18T11:17:44;7.60;99.90
23869;DHT22;12115;47.128;15.422;2022-11-18T11:20:20;7.60;99.90
23869;DHT22;12115;47.128;15.422;2022-11-18T11:22:49;7.60;99.90
23869;DHT22;12115;47.128;15.422;2022-11-18T11:25:18;7.60;99.90
23869;DHT22;12115;47.128;15.422;2022-11-18T11:31:09;7.70;99.90
23869;DHT22;12115;47.128;15.422;2022-11-18T11:33:41;7.70;99.90
23869;DHT22;12115;47.128;15.422;2022-11-18T11:36:17;7.70;99.90
23869;DHT22;12115;47.128;15.422;2022-11-18T11:38:58;7.70;99.90
23869;DHT22;12115;47.128;15.422;2022-11-18T11:41:57;7.70;99.90
23869;DHT22;12115;47.128;15.422;2022-11-18T11:44:38;7.80;99.90
23869;DHT22;12115;47.128;15.422;2022-11-18T11:50:29;7.90;99.90
23869;DHT22;12115;47.128;15.422;2022-11-18T12:06:31;7.90;99.90
23869;DHT22;12115;47.128;15.422;2022-11-18T12:15:28;8.00;99.90
23869;DHT22;12115;47.128;15.422;2022-11-18T12:23:12;8.10;99.90
23869;DHT22;12115;47.128;15.422;2022-11-18T12:28:26;8.00;99.90
23869;DHT22;12115;47.128;15.422;2022-11-18T12:33:45;8.10;99.90
23869;DHT22;12115;47.128;15.422;2022-11-18T12:38:56;8.20;99.90
23869;DHT22;12115;47.128;15.422;2022-11-18T12:44:26;8.10;99.90
23869;DHT22;12115;47.128;15.422;2022-11-18T12:46:55;8.10;99.90
23869;DHT22;12115;47.128;15.422;2022-11-18T12:51:50;8.20;99.90
23869;DHT22;12115;47.128;15.422;2022-11-18T12:54:45;8.30;99.90
23869;DHT22;12115;47.128;15.422;2022-11-18T12:57:19;8.30;99.90
23869;DHT22;12115;47.128;15.422;2022-11-18T12:59:47;8.20;99.90
23869;DHT22;12115;47.128;15.422;2022-11-18T13:05:18;8.30;99.90
23869;DHT22;12115;47.128;15.422;2022-11-18T13:07:51;8.40;99.90
23869;DHT22;12115;47.128;15.422;2022-11-18T13:13:30;8.50;99.90
23869;DHT22;12115;47.128;15.422;2022-11-18T13:16:20;8.50;99.90
23869;DHT22;12115;47.128;15.422;2022-11-18T13:19:07;8.50;99.90
23869;DHT22;12115;47.128;15.422;2022-11-18T13:21:34;8.50;99.90
23869;DHT22;12115;47.128;15.422;2022-11-18T13:24:21;8.50;99.90
23869;DHT22;12115;47.128;15.422;2022-11-18T13:26:54;8.50;99.90
23869;DHT22;12115;47.128;15.422;2022-11-18T13:29:34;8.60;99.90
23869;DHT22;12115;47.128;15.422;2022-11-18T13:32:25;8.60;99.90
23869;DHT22;12115;47.128;15.422;2022-11-18T13:35:01;8.60;99.90
23869;DHT22;12115;47.128;15.422;2022-11-18T13:37:33;8.60;99.90
23869;DHT22;12115;47.128;15.422;2022-11-18T13:40:00;8.60;99.90
23869;DHT22;12115;47.128;15.422;2022-11-18T13:42:31;8.60;99.90
23869;DHT22;12115;47.128;15.422;2022-11-18T13:45:01;8.60;99.90
23869;DHT22;12115;47.128;15.422;2022-11-18T13:52:45;8.70;99.90
23869;DHT22;12115;47.128;15.422;2022-11-18T13:56:15;8.70;99.90
23869;DHT22;12115;47.128;15.422;2022-11-18T14:01:53;8.70;99.90
23869;DHT22;12115;47.128;15.422;2022-11-18T14:04:22;8.70;99.90
23869;DHT22;12115;47.128;15.422;2022-11-18T14:06:50;8.70;99.90
23869;DHT22;12115;47.128;15.422;2022-11-18T14:12:19;8.70;99.90
23869;DHT22;12115;47.128;15.422;2022-11-18T14:15:34;8.80;99.90
23869;DHT22;12115;47.128;15.422;2022-11-18T14:18:19;8.70;99.90
23869;DHT22;12115;47.128;15.422;2022-11-18T14:20:52;8.70;99.90
23869;DHT22;12115;47.128;15.422;2022-11-18T14:23:25;8.70;99.90
23869;DHT22;12115;47.128;15.422;2022-11-18T14:25:53;8.70;99.90
23869;DHT22;12115;47.128;15.422;2022-11-18T14:28:35;8.70;99.90
23869;DHT22;12115;47.128;15.422;2022-11-18T14:31:23;8.70;99.90
23869;DHT22;12115;47.128;15.422;2022-11-18T14:36:32;8.80;99.90
23869;DHT22;12115;47.128;15.422;2022-11-18T14:38:59;8.80;99.90
23869;DHT22;12115;47.128;15.422;2022-11-18T14:41:46;8.80;99.90
23869;DHT22;12115;47.128;15.422;2022-11-18T14:44:14;8.80;99.90
23869;DHT22;12115;47.128;15.422;2022-11-18T14:46:43;8.80;99.90
23869;DHT22;12115;47.128;15.422;2022-11-18T14:49:16;8.80;99.90
23869;DHT22;12115;47.128;15.422;2022-11-18T14:51:45;8.80;99.90
23869;DHT22;12115;47.128;15.422;2022-11-18T14:54:13;8.80;99.90
23869;DHT22;12115;47.128;15.422;2022-11-18T14:56:48;8.80;99.90
23869;DHT22;12115;47.128;15.422;2022-11-18T14:59:17;8.80;99.90
23869;DHT22;12115;47.128;15.422;2022-11-18T15:01:45;8.80;99.90
23869;DHT22;12115;47.128;15.422;2022-11-18T15:04:13;8.70;99.90
23869;DHT22;12115;47.128;15.422;2022-11-18T15:06:40;8.70;99.90
23869;DHT22;12115;47.128;15.422;2022-11-18T15:09:07;8.70;99.90
23869;DHT22;12115;47.128;15.422;2022-11-18T15:11:34;8.70;99.90
23869;DHT22;12115;47.128;15.422;2022-11-18T15:14:02;8.70;99.90
23869;DHT22;12115;47.128;15.422;2022-11-18T15:16:31;8.60;99.90
23869;DHT22;12115;47.128;15.422;2022-11-18T15:19:00;8.60;99.90
23869;DHT22;12115;47.128;15.422;2022-11-18T15:21:28;8.60;99.90
23869;DHT22;12115;47.128;15.422;2022-11-18T15:23:55;8.60;99.90
23869;DHT22;12115;47.128;15.422;2022-11-18T15:26:27;8.60;99.90
23869;DHT22;12115;47.128;15.422;2022-11-18T15:28:56;8.60;99.90
23869;DHT22;12115;47.128;15.422;2022-11-18T15:31:24;8.60;99.90
23869;DHT22;12115;47.128;15.422;2022-11-18T15:33:51;8.60;99.90
23869;DHT22;12115;47.128;15.422;2022-11-18T15:36:20;8.50;99.90
23869;DHT22;12115;47.128;15.422;2022-11-18T15:38:48;8.60;99.90
23869;DHT22;12115;47.128;15.422;2022-11-18T15:41:24;8.50;99.90
23869;DHT22;12115;47.128;15.422;2022-11-18T15:43:53;8.50;99.90
23869;DHT22;12115;47.128;15.422;2022-11-18T15:46:22;8.50;99.90
23869;DHT22;12115;47.128;15.422;2022-11-18T15:48:53;8.40;99.90
23869;DHT22;12115;47.128;15.422;2022-11-18T15:51:22;8.40;99.90
23869;DHT22;12115;47.128;15.422;2022-11-18T15:53:49;8.40;99.90
23869;DHT22;12115;47.128;15.422;2022-11-18T16:01:35;8.30;99.90
23869;DHT22;12115;47.128;15.422;2022-11-18T16:04:04;8.30;99.90
23869;DHT22;12115;47.128;15.422;2022-11-18T16:06:32;8.20;99.90
23869;DHT22;12115;47.128;15.422;2022-11-18T16:08:59;8.20;99.90
23869;DHT22;12115;47.128;15.422;2022-11-18T16:11:28;8.20;99.90
23869;DHT22;12115;47.128;15.422;2022-11-18T16:14:15;8.20;99.90
23869;DHT22;12115;47.128;15.422;2022-11-18T16:16:44;8.20;99.90
23869;DHT22;12115;47.128;15.422;2022-11-18T16:19:14;8.20;99.90
23869;DHT22;12115;47.128;15.422;2022-11-18T16:21:44;8.30;99.90
23869;DHT22;12115;47.128;15.422;2022-11-18T16:24:20;8.30;99.90
23869;DHT22;12115;47.128;15.422;2022-11-18T16:26:49;8.30;99.90
23869;DHT22;12115;47.128;15.422;2022-11-18T16:29:16;8.20;99.90
23869;DHT22;12115;47.128;15.422;2022-11-18T16:31:46;8.20;99.90
23869;DHT22;12115;47.128;15.422;2022-11-18T16:34:20;8.20;99.90
23869;DHT22;12115;47.128;15.422;2022-11-18T16:36:50;8.20;99.90
23869;DHT22;12115;47.128;15.422;2022-11-18T16:39:19;8.20;99.90
23869;DHT22;12115;47.128;15.422;2022-11-18T16:41:51;8.10;99.90
23869;DHT22;12115;47.128;15.422;2022-11-18T16:44:19;8.10;99.90
23869;DHT22;12115;47.128;15.422;2022-11-18T16:46:54;8.00;99.90
23869;DHT22;12115;47.128;15.422;2022-11-18T16:49:23;8.00;99.90
23869;DHT22;12115;47.128;15.422;2022-11-18T16:51:53;8.00;99.90
23869;DHT22;12115;47.128;15.422;2022-11-18T16:54:26;8.00;99.90
23869;DHT22;12115;47.128;15.422;2022-11-18T16:56:55;8.10;99.90
23869;DHT22;12115;47.128;15.422;2022-11-18T16:59:25;8.10;99.90
23869;DHT22;12115;47.128;15.422;2022-11-18T17:01:54;8.10;99.90
23869;DHT22;12115;47.128;15.422;2022-11-18T17:04:23;8.10;99.90
23869;DHT22;12115;47.128;15.422;2022-11-18T17:06:52;8.10;99.90
23869;DHT22;12115;47.128;15.422;2022-11-18T17:09:21;8.00;99.90
23869;DHT22;12115;47.128;15.422;2022-11-18T17:11:50;8.00;99.90
23869;DHT22;12115;47.128;15.422;2022-11-18T17:14:18;8.00;99.90
23869;DHT22;12115;47.128;15.422;2022-11-18T17:16:45;8.00;99.90
23869;DHT22;12115;47.128;15.422;2022-11-18T17:19:16;8.00;99.90
23869;DHT22;12115;47.128;15.422;2022-11-18T17:21:44;8.00;99.90
23869;DHT22;12115;47.128;15.422;2022-11-18T17:24:14;7.90;99.90
23869;DHT22;12115;47.128;15.422;2022-11-18T17:26:42;7.90;99.90
23869;DHT22;12115;47.128;15.422;2022-11-18T17:29:09;7.90;99.90
23869;DHT22;12115;47.128;15.422;2022-11-18T17:31:38;7.90;99.90
23869;DHT22;12115;47.128;15.422;2022-11-18T17:34:09;7.90;99.90
23869;DHT22;12115;47.128;15.422;2022-11-18T17:36:36;7.90;99.90
23869;DHT22;12115;47.128;15.422;2022-11-18T17:39:04;7.90;99.90
23869;DHT22;12115;47.128;15.422;2022-11-18T17:41:31;7.90;99.90
23869;DHT22;12115;47.128;15.422;2022-11-18T17:44:16;7.90;99.90
23869;DHT22;12115;47.128;15.422;2022-11-18T17:46:44;7.90;99.90
23869;DHT22;12115;47.128;15.422;2022-11-18T17:49:17;7.80;99.90
23869;DHT22;12115;47.128;15.422;2022-11-18T17:51:44;7.80;99.90
23869;DHT22;12115;47.128;15.422;2022-11-18T17:54:13;7.80;99.90
23869;DHT22;12115;47.128;15.422;2022-11-18T17:56:41;7.80;99.90
23869;DHT22;12115;47.128;15.422;2022-11-18T17:59:09;7.80;99.90
23869;DHT22;12115;47.128;15.422;2022-11-18T18:01:38;7.80;99.90
23869;DHT22;12115;47.128;15.422;2022-11-18T18:04:05;7.80;99.90
23869;DHT22;12115;47.128;15.422;2022-11-18T18:06:32;7.70;99.90
23869;DHT22;12115;47.128;15.422;2022-11-18T18:09:00;7.70;99.90
23869;DHT22;12115;47.128;15.422;2022-11-18T18:11:27;7.70;99.90
23869;DHT22;12115;47.128;15.422;2022-11-18T18:13:54;7.70;99.90